sensor_id;sensor_type;location;lat;lon;timestamp;pressure;altitude;pressure_sealevel;temperature;humidity
21869;BME280;11099;41.564;23.296;2022-11-20T08:03:15;97174.22;;;18.52;nan
21869;BME280;11099;41.564;23.296;2022-11-20T08:05:42;97171.53;;;18.55;nan
21869;BME280;11099;41.564;23.296;2022-11-20T08:08:13;97229.81;;;18.93;nan
21869;BME280;11099;41.564;23.296;2022-11-20T08:10:39;97162.13;;;18.68;nan
21869;BME280;11099;41.564;23.296;2022-11-20T08:13:04;97129.06;;;18.45;nan
21869;BME280;11099;41.564;23.296;2022-11-20T08:15:50;97216.66;;;18.88;nan
21869;BME280;11099;41.564;23.296;2022-11-20T08:18:16;97147.13;;;18.41;nan
21869;BME280;11099;41.564;23.296;2022-11-20T08:20:42;97162.22;;;18.49;nan
21869;BME280;11099;41.564;23.296;2022-11-20T08:23:08;97232.16;;;18.95;nan
21869;BME280;11099;41.564;23.296;2022-11-20T08:25:37;97209.97;;;18.75;nan
21869;BME280;11099;41.564;23.296;2022-11-20T08:28:05;97209.34;;;18.59;nan
21869;BME280;11099;41.564;23.296;2022-11-20T08:30:32;97142.25;;;18.24;nan
21869;BME280;11099;41.564;23.296;2022-11-20T08:33:06;97231.25;;;18.84;nan
21869;BME280;11099;41.564;23.296;2022-11-20T08:35:37;97220.75;;;18.75;nan
21869;BME280;11099;41.564;23.296;2022-11-20T08:38:04;97185.56;;;18.38;nan
21869;BME280;11099;41.564;23.296;2022-11-20T08:40:30;97166.03;;;18.18;nan
21869;BME280;11099;41.564;23.296;2022-11-20T08:42:56;97218.81;;;18.76;nan
21869;BME280;11099;41.564;23.296;2022-11-20T08:45:23;97154.88;;;18.46;nan
21869;BME280;11099;41.564;23.296;2022-11-20T08:50:31;97224.81;;;18.92;nan
21869;BME280;11099;41.564;23.296;2022-11-20T08:53:02;97216.22;;;18.83;nan
21869;BME280;11099;41.564;23.296;2022-11-20T08:55:28;97225.81;;;18.80;nan
21869;BME280;11099;41.564;23.296;2022-11-20T08:57:54;97213.03;;;18.74;nan
21869;BME280;11099;41.564;23.296;2022-11-20T09:00:19;97225.06;;;18.83;nan
21869;BME280;11099;41.564;23.296;2022-11-20T09:02:45;97236.00;;;18.94;nan
21869;BME280;11099;41.564;23.296;2022-11-20T09:05:10;97222.34;;;18.80;nan
21869;BME280;11099;41.564;23.296;2022-11-20T09:07:36;97179.63;;;18.55;nan
21869;BME280;11099;41.564;23.296;2022-11-20T09:10:02;97175.00;;;18.52;nan
21869;BME280;11099;41.564;23.296;2022-11-20T09:12:28;97210.00;;;18.79;nan
21869;BME280;11099;41.564;23.296;2022-11-20T09:14:54;97170.38;;;18.53;nan
21869;BME280;11099;41.564;23.296;2022-11-20T09:17:20;97232.59;;;19.01;nan
21869;BME280;11099;41.564;23.296;2022-11-20T09:19:46;97219.16;;;19.04;nan
21869;BME280;11099;41.564;23.296;2022-11-20T09:22:12;97141.63;;;18.64;nan
21869;BME280;11099;41.564;23.296;2022-11-20T09:24:38;97168.94;;;18.92;nan
21869;BME280;11099;41.564;23.296;2022-11-20T09:27:04;97135.41;;;18.60;nan
21869;BME280;11099;41.564;23.296;2022-11-20T09:29:30;97195.25;;;19.03;nan
21869;BME280;11099;41.564;23.296;2022-11-20T09:31:56;97202.28;;;19.11;nan
21869;BME280;11099;41.564;23.296;2022-11-20T09:36:51;97131.25;;;18.66;nan
21869;BME280;11099;41.564;23.296;2022-11-20T09:39:17;97117.63;;;18.55;nan
21869;BME280;11099;41.564;23.296;2022-11-20T09:47:13;97128.53;;;18.66;nan
21869;BME280;11099;41.564;23.296;2022-11-20T09:52:37;97159.59;;;18.83;nan
21869;BME280;11099;41.564;23.296;2022-11-20T09:55:10;97120.72;;;18.54;nan
21869;BME280;11099;41.564;23.296;2022-11-20T09:57:40;97188.97;;;18.91;nan
21869;BME280;11099;41.564;23.296;2022-11-20T10:00:10;97188.84;;;18.81;nan
21869;BME280;11099;41.564;23.296;2022-11-20T10:02:52;97084.09;;;18.19;nan
21869;BME280;11099;41.564;23.296;2022-11-20T10:05:31;97134.09;;;18.47;nan
21869;BME280;11099;41.564;23.296;2022-11-20T10:08:21;97137.72;;;18.58;nan
21869;BME280;11099;41.564;23.296;2022-11-20T10:11:04;97089.50;;;18.19;nan
21869;BME280;11099;41.564;23.296;2022-11-20T10:24:47;97052.91;;;18.18;nan
21869;BME280;11099;41.564;23.296;2022-11-20T10:27:34;97117.72;;;18.62;nan
21869;BME280;11099;41.564;23.296;2022-11-20T10:30:16;97091.44;;;18.52;nan
21869;BME280;11099;41.564;23.296;2022-11-20T10:32:46;97047.25;;;17.97;nan
21869;BME280;11099;41.564;23.296;2022-11-20T10:37:44;97025.91;;;17.81;nan
21869;BME280;11099;41.564;23.296;2022-11-20T10:40:31;97017.53;;;17.89;nan
21869;BME280;11099;41.564;23.296;2022-11-20T10:43:08;97027.44;;;17.82;nan
21869;BME280;11099;41.564;23.296;2022-11-20T10:46:01;97052.00;;;18.07;nan
21869;BME280;11099;41.564;23.296;2022-11-20T10:48:31;97113.78;;;18.56;nan
21869;BME280;11099;41.564;23.296;2022-11-20T10:51:10;97114.63;;;18.60;nan
21869;BME280;11099;41.564;23.296;2022-11-20T10:56:40;97047.63;;;18.25;nan
21869;BME280;11099;41.564;23.296;2022-11-20T11:01:43;97026.19;;;18.06;nan
21869;BME280;11099;41.564;23.296;2022-11-20T11:04:45;97022.22;;;17.96;nan
21869;BME280;11099;41.564;23.296;2022-11-20T11:12:25;97041.81;;;17.93;nan
21869;BME280;11099;41.564;23.296;2022-11-20T11:14:56;97131.50;;;18.54;nan
21869;BME280;11099;41.564;23.296;2022-11-20T11:17:32;97140.63;;;18.46;nan
21869;BME280;11099;41.564;23.296;2022-11-20T11:20:01;97080.84;;;17.80;nan
21869;BME280;11099;41.564;23.296;2022-11-20T11:22:32;97171.19;;;18.27;nan
21869;BME280;11099;41.564;23.296;2022-11-20T11:30:14;97096.69;;;17.35;nan
21869;BME280;11099;41.564;23.296;2022-11-20T11:32:40;97156.84;;;17.93;nan
21869;BME280;11099;41.564;23.296;2022-11-20T11:35:22;97148.22;;;17.83;nan
21869;BME280;11099;41.564;23.296;2022-11-20T11:50:59;97186.13;;;17.29;nan
21869;BME280;11099;41.564;23.296;2022-11-20T11:53:28;97178.91;;;17.33;nan
21869;BME280;11099;41.564;23.296;2022-11-20T11:56:08;97179.56;;;17.26;nan
21869;BME280;11099;41.564;23.296;2022-11-20T11:58:50;97129.97;;;16.81;nan
21869;BME280;11099;41.564;23.296;2022-11-20T12:09:24;97118.75;;;16.41;nan
21869;BME280;11099;41.564;23.296;2022-11-20T12:14:41;97158.22;;;16.75;nan
21869;BME280;11099;41.564;23.296;2022-11-20T12:17:11;97188.72;;;17.02;nan
21869;BME280;11099;41.564;23.296;2022-11-20T12:19:37;97150.59;;;16.77;nan
21869;BME280;11099;41.564;23.296;2022-11-20T12:24:41;97184.91;;;17.03;nan
21869;BME280;11099;41.564;23.296;2022-11-20T12:30:07;97115.50;;;16.51;nan
21869;BME280;11099;41.564;23.296;2022-11-20T12:35:37;97165.03;;;16.89;nan
21869;BME280;11099;41.564;23.296;2022-11-20T12:41:39;97088.28;;;16.52;nan
21869;BME280;11099;41.564;23.296;2022-11-20T12:48:05;97159.03;;;17.18;nan
21869;BME280;11099;41.564;23.296;2022-11-20T13:04:47;97135.28;;;17.43;nan
21869;BME280;11099;41.564;23.296;2022-11-20T13:07:18;97122.66;;;17.47;nan
21869;BME280;11099;41.564;23.296;2022-11-20T13:18:18;97062.56;;;16.71;nan
21869;BME280;11099;41.564;23.296;2022-11-20T13:28:59;97109.50;;;17.42;nan
21869;BME280;11099;41.564;23.296;2022-11-20T13:46:51;97090.34;;;17.24;nan
21869;BME280;11099;41.564;23.296;2022-11-20T13:50:03;97031.28;;;16.82;nan
21869;BME280;11099;41.564;23.296;2022-11-20T13:57:55;97087.97;;;16.96;nan
21869;BME280;11099;41.564;23.296;2022-11-20T14:00:26;97018.66;;;16.44;nan
21869;BME280;11099;41.564;23.296;2022-11-20T14:05:54;97005.22;;;16.44;nan
21869;BME280;11099;41.564;23.296;2022-11-20T14:08:35;97051.16;;;16.58;nan
21869;BME280;11099;41.564;23.296;2022-11-20T14:11:19;97018.22;;;16.42;nan
21869;BME280;11099;41.564;23.296;2022-11-20T14:14:23;97039.09;;;16.48;nan
21869;BME280;11099;41.564;23.296;2022-11-20T14:16:51;97083.06;;;17.02;nan
21869;BME280;11099;41.564;23.296;2022-11-20T14:22:15;97005.00;;;16.52;nan
21869;BME280;11099;41.564;23.296;2022-11-20T14:24:41;97068.91;;;17.05;nan
21869;BME280;11099;41.564;23.296;2022-11-20T14:27:18;96992.41;;;16.56;nan
21869;BME280;11099;41.564;23.296;2022-11-20T14:29:47;97061.25;;;17.07;nan
21869;BME280;11099;41.564;23.296;2022-11-20T14:32:19;97061.34;;;17.10;nan
21869;BME280;11099;41.564;23.296;2022-11-20T14:34:48;96990.69;;;16.68;nan
21869;BME280;11099;41.564;23.296;2022-11-20T14:37:24;97043.75;;;17.17;nan
21869;BME280;11099;41.564;23.296;2022-11-20T14:39:53;96947.56;;;16.60;nan
21869;BME280;11099;41.564;23.296;2022-11-20T14:42:26;96972.84;;;16.79;nan
21869;BME280;11099;41.564;23.296;2022-11-20T14:44:59;96995.38;;;16.94;nan
21869;BME280;11099;41.564;23.296;2022-11-20T14:47:29;96933.47;;;16.44;nan
21869;BME280;11099;41.564;23.296;2022-11-20T14:50:02;97024.50;;;16.92;nan
21869;BME280;11099;41.564;23.296;2022-11-20T14:52:28;97019.44;;;16.86;nan
21869;BME280;11099;41.564;23.296;2022-11-20T14:54:57;96935.22;;;16.14;nan
21869;BME280;11099;41.564;23.296;2022-11-20T14:57:35;96939.59;;;16.22;nan
21869;BME280;11099;41.564;23.296;2022-11-20T15:00:20;97039.19;;;16.75;nan
21869;BME280;11099;41.564;23.296;2022-11-20T15:02:48;97049.03;;;16.67;nan
21869;BME280;11099;41.564;23.296;2022-11-20T15:05:15;96980.41;;;16.31;nan
21869;BME280;11099;41.564;23.296;2022-11-20T15:07:46;96946.47;;;16.00;nan
21869;BME280;11099;41.564;23.296;2022-11-20T15:10:13;96991.34;;;16.61;nan
21869;BME280;11099;41.564;23.296;2022-11-20T15:12:52;96982.91;;;16.63;nan
21869;BME280;11099;41.564;23.296;2022-11-20T15:15:31;97002.44;;;16.59;nan
21869;BME280;11099;41.564;23.296;2022-11-20T15:17:58;97015.06;;;16.59;nan
21869;BME280;11099;41.564;23.296;2022-11-20T15:20:32;97007.22;;;16.70;nan
21869;BME280;11099;41.564;23.296;2022-11-20T15:22:58;97048.31;;;16.70;nan
21869;BME280;11099;41.564;23.296;2022-11-20T15:25:24;97071.41;;;16.71;nan
21869;BME280;11099;41.564;23.296;2022-11-20T15:27:55;97063.44;;;16.59;nan
21869;BME280;11099;41.564;23.296;2022-11-20T15:30:21;97069.03;;;16.70;nan
21869;BME280;11099;41.564;23.296;2022-11-20T15:32:47;97055.88;;;16.65;nan
21869;BME280;11099;41.564;23.296;2022-11-20T15:35:14;97076.41;;;16.73;nan
21869;BME280;11099;41.564;23.296;2022-11-20T15:37:40;97080.13;;;16.68;nan
21869;BME280;11099;41.564;23.296;2022-11-20T15:40:07;97088.72;;;16.74;nan
21869;BME280;11099;41.564;23.296;2022-11-20T15:42:33;97092.78;;;16.68;nan
21869;BME280;11099;41.564;23.296;2022-11-20T15:45:01;97052.28;;;16.57;nan
21869;BME280;11099;41.564;23.296;2022-11-20T15:47:32;97036.81;;;16.50;nan
21869;BME280;11099;41.564;23.296;2022-11-20T15:50:19;97023.25;;;16.43;nan
21869;BME280;11099;41.564;23.296;2022-11-20T15:52:50;97073.72;;;16.73;nan
21869;BME280;11099;41.564;23.296;2022-11-20T15:55:17;97083.34;;;16.74;nan
21869;BME280;11099;41.564;23.296;2022-11-20T15:57:45;97012.84;;;16.42;nan
21869;BME280;11099;41.564;23.296;2022-11-20T16:00:14;97044.16;;;16.73;nan
21869;BME280;11099;41.564;23.296;2022-11-20T16:03:15;96983.59;;;16.37;nan
21869;BME280;11099;41.564;23.296;2022-11-20T16:05:48;97001.41;;;16.45;nan
21869;BME280;11099;41.564;23.296;2022-11-20T16:08:35;97039.56;;;16.73;nan
21869;BME280;11099;41.564;23.296;2022-11-20T16:11:02;96979.72;;;16.34;nan
21869;BME280;11099;41.564;23.296;2022-11-20T16:13:55;97026.97;;;16.77;nan
21869;BME280;11099;41.564;23.296;2022-11-20T16:16:44;97007.03;;;16.59;nan
21869;BME280;11099;41.564;23.296;2022-11-20T16:19:13;96942.69;;;16.24;nan
21869;BME280;11099;41.564;23.296;2022-11-20T16:22:03;96949.63;;;16.25;nan
21869;BME280;11099;41.564;23.296;2022-11-20T16:24:36;97023.81;;;16.72;nan
21869;BME280;11099;41.564;23.296;2022-11-20T16:27:04;97044.41;;;16.87;nan
21869;BME280;11099;41.564;23.296;2022-11-20T16:29:56;97066.13;;;16.98;nan
21869;BME280;11099;41.564;23.296;2022-11-20T17:24:34;96912.16;;;16.78;nan
21869;BME280;11099;41.564;23.296;2022-11-20T19:19:57;96866.28;;;15.21;nan
21869;BME280;11099;41.564;23.296;2022-11-20T19:22:29;96843.44;;;15.08;nan
21869;BME280;11099;41.564;23.296;2022-11-20T19:25:02;96891.50;;;15.16;nan
21869;BME280;11099;41.564;23.296;2022-11-20T19:27:51;96912.94;;;15.16;nan
21869;BME280;11099;41.564;23.296;2022-11-20T19:30:54;96861.56;;;14.79;nan
21869;BME280;11099;41.564;23.296;2022-11-20T19:33:22;96953.31;;;15.23;nan
21869;BME280;11099;41.564;23.296;2022-11-20T19:36:18;96959.22;;;14.97;nan
21869;BME280;11099;41.564;23.296;2022-11-20T19:38:49;96909.97;;;14.55;nan
21869;BME280;11099;41.564;23.296;2022-11-20T19:41:24;96916.72;;;14.64;nan
21869;BME280;11099;41.564;23.296;2022-11-20T20:22:59;96866.31;;;14.22;nan
21869;BME280;11099;41.564;23.296;2022-11-20T20:25:42;96925.09;;;14.63;nan
21869;BME280;11099;41.564;23.296;2022-11-20T20:28:23;96924.88;;;14.40;nan
21869;BME280;11099;41.564;23.296;2022-11-20T20:31:16;96895.75;;;14.38;nan
21869;BME280;11099;41.564;23.296;2022-11-20T20:33:47;96886.88;;;14.34;nan
21869;BME280;11099;41.564;23.296;2022-11-20T20:36:22;96872.53;;;14.27;nan
21869;BME280;11099;41.564;23.296;2022-11-20T20:38:59;96857.22;;;14.11;nan
21869;BME280;11099;41.564;23.296;2022-11-20T20:41:45;96863.81;;;14.14;nan
21869;BME280;11099;41.564;23.296;2022-11-20T20:44:29;96787.97;;;13.78;nan
21869;BME280;11099;41.564;23.296;2022-11-20T20:47:20;96809.13;;;13.83;nan
21869;BME280;11099;41.564;23.296;2022-11-20T20:49:50;96779.94;;;13.78;nan
21869;BME280;11099;41.564;23.296;2022-11-20T20:52:21;96803.28;;;13.93;nan
21869;BME280;11099;41.564;23.296;2022-11-20T20:54:56;96846.72;;;14.18;nan
21869;BME280;11099;41.564;23.296;2022-11-20T20:57:33;96776.84;;;13.76;nan
21869;BME280;11099;41.564;23.296;2022-11-20T21:00:05;96778.06;;;14.10;nan
21869;BME280;11099;41.564;23.296;2022-11-20T21:02:48;96728.88;;;13.83;nan
21869;BME280;11099;41.564;23.296;2022-11-20T21:05:23;96739.06;;;14.09;nan
21869;BME280;11099;41.564;23.296;2022-11-20T21:07:59;96806.78;;;14.61;nan
21869;BME280;11099;41.564;23.296;2022-11-20T21:16:08;96759.16;;;14.51;nan
21869;BME280;11099;41.564;23.296;2022-11-20T21:18:39;96786.31;;;14.68;nan
21869;BME280;11099;41.564;23.296;2022-11-20T21:21:12;96781.50;;;14.27;nan
21869;BME280;11099;41.564;23.296;2022-11-20T21:24:10;96730.38;;;14.32;nan
21869;BME280;11099;41.564;23.296;2022-11-20T21:26:40;96763.63;;;14.82;nan
21869;BME280;11099;41.564;23.296;2022-11-20T21:29:08;96742.81;;;14.75;nan
21869;BME280;11099;41.564;23.296;2022-11-20T21:31:41;96743.25;;;14.96;nan
21869;BME280;11099;41.564;23.296;2022-11-20T21:34:28;96693.03;;;14.55;nan
21869;BME280;11099;41.564;23.296;2022-11-20T21:37:12;96711.59;;;14.83;nan
21869;BME280;11099;41.564;23.296;2022-11-20T21:39:41;96744.66;;;14.71;nan
21869;BME280;11099;41.564;23.296;2022-11-20T21:42:42;96716.72;;;14.53;nan
21869;BME280;11099;41.564;23.296;2022-11-20T21:45:14;96712.81;;;14.15;nan
21869;BME280;11099;41.564;23.296;2022-11-20T23:15:05;96526.13;;;12.90;nan
21869;BME280;11099;41.564;23.296;2022-11-20T23:17:38;96565.25;;;12.99;nan
21869;BME280;11099;41.564;23.296;2022-11-20T23:20:09;96594.28;;;13.16;nan
21869;BME280;11099;41.564;23.296;2022-11-20T23:22:37;96594.13;;;13.09;nan
21869;BME280;11099;41.564;23.296;2022-11-20T23:25:10;96576.44;;;12.88;nan
21869;BME280;11099;41.564;23.296;2022-11-20T23:27:38;96557.75;;;12.88;nan
21869;BME280;11099;41.564;23.296;2022-11-20T23:58:50;96443.78;;;13.82;nan
